sensor_id;sensor_type;location;lat;lon;timestamp;P1;durP1;ratioP1;P2;durP2;ratioP2
82495;SDS011;72133;42.522;24.800;2023-12-29T00:00:32;16.70;;;11.95;;
82495;SDS011;72133;42.522;24.800;2023-12-29T00:02:58;12.40;;;9.13;;
82495;SDS011;72133;42.522;24.800;2023-12-29T00:05:24;11.57;;;7.82;;
82495;SDS011;72133;42.522;24.800;2023-12-29T00:07:49;12.73;;;9.43;;
82495;SDS011;72133;42.522;24.800;2023-12-29T00:10:15;13.00;;;9.98;;
82495;SDS011;72133;42.522;24.800;2023-12-29T00:12:40;13.77;;;9.02;;
82495;SDS011;72133;42.522;24.800;2023-12-29T00:15:06;11.02;;;8.40;;
82495;SDS011;72133;42.522;24.800;2023-12-29T00:17:32;12.20;;;9.25;;
82495;SDS011;72133;42.522;24.800;2023-12-29T00:20:02;17.20;;;9.82;;
82495;SDS011;72133;42.522;24.800;2023-12-29T00:22:29;13.38;;;9.82;;
82495;SDS011;72133;42.522;24.800;2023-12-29T00:24:55;11.82;;;8.68;;
82495;SDS011;72133;42.522;24.800;2023-12-29T00:27:20;11.18;;;8.63;;
82495;SDS011;72133;42.522;24.800;2023-12-29T00:29:46;11.27;;;7.68;;
82495;SDS011;72133;42.522;24.800;2023-12-29T00:32:11;9.20;;;6.57;;
82495;SDS011;72133;42.522;24.800;2023-12-29T00:34:37;11.27;;;7.22;;
82495;SDS011;72133;42.522;24.800;2023-12-29T00:37:03;11.48;;;7.05;;
82495;SDS011;72133;42.522;24.800;2023-12-29T00:39:28;10.85;;;7.07;;
82495;SDS011;72133;42.522;24.800;2023-12-29T00:41:55;13.60;;;7.90;;
82495;SDS011;72133;42.522;24.800;2023-12-29T00:44:22;11.30;;;7.13;;
82495;SDS011;72133;42.522;24.800;2023-12-29T00:46:48;9.55;;;7.07;;
82495;SDS011;72133;42.522;24.800;2023-12-29T00:49:14;11.35;;;7.18;;
82495;SDS011;72133;42.522;24.800;2023-12-29T00:51:40;10.13;;;7.40;;
82495;SDS011;72133;42.522;24.800;2023-12-29T00:54:08;11.02;;;7.82;;
82495;SDS011;72133;42.522;24.800;2023-12-29T00:56:34;11.55;;;7.20;;
82495;SDS011;72133;42.522;24.800;2023-12-29T00:58:59;10.10;;;7.28;;
82495;SDS011;72133;42.522;24.800;2023-12-29T01:01:25;11.05;;;7.75;;
82495;SDS011;72133;42.522;24.800;2023-12-29T01:03:51;12.73;;;7.65;;
82495;SDS011;72133;42.522;24.800;2023-12-29T01:06:19;12.13;;;7.65;;
82495;SDS011;72133;42.522;24.800;2023-12-29T01:08:45;11.25;;;7.63;;
82495;SDS011;72133;42.522;24.800;2023-12-29T01:11:11;12.63;;;7.85;;
82495;SDS011;72133;42.522;24.800;2023-12-29T01:13:36;10.40;;;7.35;;
82495;SDS011;72133;42.522;24.800;2023-12-29T01:16:02;11.38;;;7.57;;
82495;SDS011;72133;42.522;24.800;2023-12-29T01:18:28;10.90;;;7.68;;
82495;SDS011;72133;42.522;24.800;2023-12-29T01:20:53;12.57;;;8.77;;
82495;SDS011;72133;42.522;24.800;2023-12-29T01:23:19;12.57;;;7.60;;
82495;SDS011;72133;42.522;24.800;2023-12-29T01:25:45;10.50;;;7.38;;
82495;SDS011;72133;42.522;24.800;2023-12-29T01:28:10;10.85;;;7.07;;
82495;SDS011;72133;42.522;24.800;2023-12-29T01:30:36;8.77;;;6.28;;
82495;SDS011;72133;42.522;24.800;2023-12-29T01:33:02;9.70;;;6.50;;
82495;SDS011;72133;42.522;24.800;2023-12-29T01:35:27;9.30;;;6.35;;
82495;SDS011;72133;42.522;24.800;2023-12-29T01:37:53;11.70;;;5.97;;
82495;SDS011;72133;42.522;24.800;2023-12-29T01:40:20;9.90;;;6.65;;
82495;SDS011;72133;42.522;24.800;2023-12-29T01:42:46;10.80;;;7.10;;
82495;SDS011;72133;42.522;24.800;2023-12-29T01:45:21;10.95;;;8.07;;
82495;SDS011;72133;42.522;24.800;2023-12-29T01:47:48;11.68;;;6.70;;
82495;SDS011;72133;42.522;24.800;2023-12-29T01:50:14;9.40;;;6.07;;
82495;SDS011;72133;42.522;24.800;2023-12-29T01:52:40;10.55;;;6.55;;
82495;SDS011;72133;42.522;24.800;2023-12-29T01:55:08;9.77;;;6.63;;
82495;SDS011;72133;42.522;24.800;2023-12-29T01:57:36;11.77;;;7.22;;
82495;SDS011;72133;42.522;24.800;2023-12-29T02:00:04;10.35;;;6.60;;
82495;SDS011;72133;42.522;24.800;2023-12-29T02:02:31;9.07;;;5.78;;
82495;SDS011;72133;42.522;24.800;2023-12-29T02:04:57;9.98;;;7.35;;
82495;SDS011;72133;42.522;24.800;2023-12-29T02:07:23;12.32;;;7.38;;
82495;SDS011;72133;42.522;24.800;2023-12-29T02:09:49;9.18;;;7.47;;
82495;SDS011;72133;42.522;24.800;2023-12-29T02:12:16;9.77;;;7.10;;
82495;SDS011;72133;42.522;24.800;2023-12-29T02:14:42;10.60;;;6.60;;
82495;SDS011;72133;42.522;24.800;2023-12-29T02:17:10;10.73;;;7.15;;
82495;SDS011;72133;42.522;24.800;2023-12-29T02:19:38;10.13;;;7.03;;
82495;SDS011;72133;42.522;24.800;2023-12-29T02:22:11;10.13;;;7.30;;
82495;SDS011;72133;42.522;24.800;2023-12-29T02:24:37;12.15;;;7.28;;
82495;SDS011;72133;42.522;24.800;2023-12-29T02:27:18;9.80;;;6.70;;
82495;SDS011;72133;42.522;24.800;2023-12-29T02:30:02;11.23;;;6.35;;
82495;SDS011;72133;42.522;24.800;2023-12-29T02:32:36;10.18;;;7.40;;
82495;SDS011;72133;42.522;24.800;2023-12-29T02:35:04;10.80;;;7.70;;
82495;SDS011;72133;42.522;24.800;2023-12-29T02:37:33;12.43;;;8.50;;
82495;SDS011;72133;42.522;24.800;2023-12-29T02:40:00;9.10;;;6.80;;
82495;SDS011;72133;42.522;24.800;2023-12-29T02:42:25;10.63;;;7.65;;
82495;SDS011;72133;42.522;24.800;2023-12-29T02:44:51;9.00;;;6.57;;
82495;SDS011;72133;42.522;24.800;2023-12-29T02:47:16;10.43;;;6.72;;
82495;SDS011;72133;42.522;24.800;2023-12-29T02:49:44;12.82;;;8.25;;
82495;SDS011;72133;42.522;24.800;2023-12-29T02:52:09;11.77;;;7.47;;
82495;SDS011;72133;42.522;24.800;2023-12-29T02:54:35;11.60;;;7.00;;
82495;SDS011;72133;42.522;24.800;2023-12-29T02:57:01;12.35;;;8.50;;
82495;SDS011;72133;42.522;24.800;2023-12-29T02:59:26;11.40;;;7.38;;
82495;SDS011;72133;42.522;24.800;2023-12-29T03:01:52;12.57;;;8.20;;
82495;SDS011;72133;42.522;24.800;2023-12-29T03:04:17;10.50;;;6.93;;
82495;SDS011;72133;42.522;24.800;2023-12-29T03:06:43;9.52;;;6.72;;
82495;SDS011;72133;42.522;24.800;2023-12-29T03:09:08;11.13;;;7.30;;
82495;SDS011;72133;42.522;24.800;2023-12-29T03:11:34;9.88;;;6.25;;
82495;SDS011;72133;42.522;24.800;2023-12-29T03:13:59;10.15;;;7.00;;
82495;SDS011;72133;42.522;24.800;2023-12-29T03:16:25;13.77;;;8.15;;
82495;SDS011;72133;42.522;24.800;2023-12-29T03:18:51;13.45;;;8.25;;
82495;SDS011;72133;42.522;24.800;2023-12-29T03:21:16;11.27;;;8.15;;
82495;SDS011;72133;42.522;24.800;2023-12-29T03:23:42;10.65;;;8.20;;
82495;SDS011;72133;42.522;24.800;2023-12-29T03:26:07;13.57;;;8.70;;
82495;SDS011;72133;42.522;24.800;2023-12-29T03:28:33;10.35;;;7.93;;
82495;SDS011;72133;42.522;24.800;2023-12-29T03:30:58;11.05;;;8.48;;
82495;SDS011;72133;42.522;24.800;2023-12-29T03:33:24;10.20;;;6.60;;
82495;SDS011;72133;42.522;24.800;2023-12-29T03:35:50;13.82;;;9.15;;
82495;SDS011;72133;42.522;24.800;2023-12-29T03:38:15;12.38;;;7.38;;
82495;SDS011;72133;42.522;24.800;2023-12-29T03:40:41;12.82;;;8.43;;
82495;SDS011;72133;42.522;24.800;2023-12-29T03:43:06;14.40;;;8.95;;
82495;SDS011;72133;42.522;24.800;2023-12-29T03:45:32;13.52;;;8.52;;
82495;SDS011;72133;42.522;24.800;2023-12-29T03:47:58;13.85;;;9.38;;
82495;SDS011;72133;42.522;24.800;2023-12-29T03:50:23;9.90;;;7.15;;
82495;SDS011;72133;42.522;24.800;2023-12-29T03:52:49;10.00;;;7.07;;
82495;SDS011;72133;42.522;24.800;2023-12-29T03:55:14;12.55;;;8.45;;
82495;SDS011;72133;42.522;24.800;2023-12-29T03:57:42;13.18;;;8.35;;
82495;SDS011;72133;42.522;24.800;2023-12-29T04:00:10;11.90;;;9.15;;
82495;SDS011;72133;42.522;24.800;2023-12-29T04:02:37;11.18;;;7.80;;
82495;SDS011;72133;42.522;24.800;2023-12-29T04:05:03;10.75;;;9.10;;
82495;SDS011;72133;42.522;24.800;2023-12-29T04:07:30;11.30;;;8.68;;
82495;SDS011;72133;42.522;24.800;2023-12-29T04:09:56;11.77;;;8.40;;
82495;SDS011;72133;42.522;24.800;2023-12-29T04:12:21;11.55;;;8.48;;
82495;SDS011;72133;42.522;24.800;2023-12-29T04:14:47;10.35;;;7.43;;
82495;SDS011;72133;42.522;24.800;2023-12-29T04:17:12;11.85;;;7.80;;
82495;SDS011;72133;42.522;24.800;2023-12-29T04:19:40;11.07;;;7.43;;
82495;SDS011;72133;42.522;24.800;2023-12-29T04:22:06;11.02;;;7.32;;
82495;SDS011;72133;42.522;24.800;2023-12-29T04:24:32;10.77;;;7.07;;
82495;SDS011;72133;42.522;24.800;2023-12-29T04:26:58;13.13;;;8.15;;
82495;SDS011;72133;42.522;24.800;2023-12-29T04:29:24;11.27;;;7.20;;
82495;SDS011;72133;42.522;24.800;2023-12-29T04:31:49;11.77;;;6.80;;
82495;SDS011;72133;42.522;24.800;2023-12-29T04:34:15;8.65;;;6.50;;
82495;SDS011;72133;42.522;24.800;2023-12-29T04:36:40;16.85;;;11.85;;
82495;SDS011;72133;42.522;24.800;2023-12-29T04:39:06;31.95;;;17.45;;
82495;SDS011;72133;42.522;24.800;2023-12-29T04:41:34;13.02;;;8.02;;
82495;SDS011;72133;42.522;24.800;2023-12-29T04:44:00;16.13;;;9.70;;
82495;SDS011;72133;42.522;24.800;2023-12-29T04:46:25;11.80;;;8.07;;
82495;SDS011;72133;42.522;24.800;2023-12-29T04:48:51;11.38;;;7.70;;
82495;SDS011;72133;42.522;24.800;2023-12-29T04:51:16;12.93;;;10.45;;
82495;SDS011;72133;42.522;24.800;2023-12-29T04:53:42;9.65;;;6.63;;
82495;SDS011;72133;42.522;24.800;2023-12-29T04:56:08;9.02;;;7.20;;
82495;SDS011;72133;42.522;24.800;2023-12-29T04:58:34;9.45;;;7.78;;
82495;SDS011;72133;42.522;24.800;2023-12-29T05:00:59;9.07;;;6.32;;
82495;SDS011;72133;42.522;24.800;2023-12-29T05:03:25;13.07;;;7.22;;
82495;SDS011;72133;42.522;24.800;2023-12-29T05:05:50;9.38;;;6.95;;
82495;SDS011;72133;42.522;24.800;2023-12-29T05:08:16;8.70;;;6.00;;
82495;SDS011;72133;42.522;24.800;2023-12-29T05:10:41;13.30;;;7.50;;
82495;SDS011;72133;42.522;24.800;2023-12-29T05:13:07;9.55;;;6.82;;
82495;SDS011;72133;42.522;24.800;2023-12-29T05:15:32;9.15;;;6.20;;
82495;SDS011;72133;42.522;24.800;2023-12-29T05:17:58;12.25;;;6.82;;
82495;SDS011;72133;42.522;24.800;2023-12-29T05:20:24;9.65;;;7.40;;
82495;SDS011;72133;42.522;24.800;2023-12-29T05:22:50;12.55;;;6.82;;
82495;SDS011;72133;42.522;24.800;2023-12-29T05:25:15;9.13;;;5.90;;
82495;SDS011;72133;42.522;24.800;2023-12-29T05:27:41;9.07;;;6.20;;
82495;SDS011;72133;42.522;24.800;2023-12-29T05:30:06;24.38;;;17.77;;
82495;SDS011;72133;42.522;24.800;2023-12-29T05:32:32;11.25;;;7.60;;
82495;SDS011;72133;42.522;24.800;2023-12-29T05:34:57;16.42;;;10.65;;
82495;SDS011;72133;42.522;24.800;2023-12-29T05:37:24;12.15;;;7.63;;
82495;SDS011;72133;42.522;24.800;2023-12-29T05:39:49;10.00;;;6.50;;
82495;SDS011;72133;42.522;24.800;2023-12-29T05:42:15;15.50;;;9.68;;
82495;SDS011;72133;42.522;24.800;2023-12-29T05:44:40;13.73;;;8.07;;
82495;SDS011;72133;42.522;24.800;2023-12-29T05:47:06;7.43;;;5.53;;
82495;SDS011;72133;42.522;24.800;2023-12-29T05:49:31;9.25;;;6.25;;
82495;SDS011;72133;42.522;24.800;2023-12-29T05:52:03;21.38;;;17.52;;
82495;SDS011;72133;42.522;24.800;2023-12-29T05:54:29;9.55;;;5.78;;
82495;SDS011;72133;42.522;24.800;2023-12-29T05:56:55;30.13;;;20.85;;
82495;SDS011;72133;42.522;24.800;2023-12-29T05:59:20;64.40;;;44.88;;
82495;SDS011;72133;42.522;24.800;2023-12-29T06:01:46;43.25;;;30.92;;
82495;SDS011;72133;42.522;24.800;2023-12-29T06:04:11;31.08;;;24.25;;
82495;SDS011;72133;42.522;24.800;2023-12-29T06:06:37;11.38;;;8.32;;
82495;SDS011;72133;42.522;24.800;2023-12-29T06:09:03;11.40;;;7.95;;
82495;SDS011;72133;42.522;24.800;2023-12-29T06:11:28;24.95;;;14.63;;
82495;SDS011;72133;42.522;24.800;2023-12-29T06:13:54;32.67;;;24.90;;
82495;SDS011;72133;42.522;24.800;2023-12-29T06:16:20;65.35;;;31.88;;
82495;SDS011;72133;42.522;24.800;2023-12-29T06:18:46;85.38;;;35.53;;
82495;SDS011;72133;42.522;24.800;2023-12-29T06:21:12;23.23;;;15.90;;
82495;SDS011;72133;42.522;24.800;2023-12-29T06:23:38;20.73;;;15.80;;
82495;SDS011;72133;42.522;24.800;2023-12-29T06:26:03;19.08;;;13.45;;
82495;SDS011;72133;42.522;24.800;2023-12-29T06:28:29;15.27;;;11.05;;
82495;SDS011;72133;42.522;24.800;2023-12-29T06:30:55;17.65;;;12.48;;
82495;SDS011;72133;42.522;24.800;2023-12-29T06:33:20;22.23;;;16.13;;
82495;SDS011;72133;42.522;24.800;2023-12-29T06:35:47;22.05;;;15.00;;
82495;SDS011;72133;42.522;24.800;2023-12-29T06:38:13;18.95;;;13.88;;
82495;SDS011;72133;42.522;24.800;2023-12-29T06:40:39;16.17;;;12.48;;
82495;SDS011;72133;42.522;24.800;2023-12-29T06:43:05;20.55;;;14.52;;
82495;SDS011;72133;42.522;24.800;2023-12-29T06:45:30;19.55;;;13.38;;
82495;SDS011;72133;42.522;24.800;2023-12-29T06:47:56;19.33;;;12.15;;
82495;SDS011;72133;42.522;24.800;2023-12-29T06:50:22;15.60;;;11.63;;
82495;SDS011;72133;42.522;24.800;2023-12-29T06:52:47;14.65;;;11.13;;
82495;SDS011;72133;42.522;24.800;2023-12-29T06:55:13;12.45;;;9.27;;
82495;SDS011;72133;42.522;24.800;2023-12-29T06:57:39;21.63;;;15.38;;
82495;SDS011;72133;42.522;24.800;2023-12-29T07:00:04;16.25;;;13.85;;
82495;SDS011;72133;42.522;24.800;2023-12-29T07:02:31;19.77;;;13.70;;
82495;SDS011;72133;42.522;24.800;2023-12-29T07:04:56;13.15;;;10.93;;
82495;SDS011;72133;42.522;24.800;2023-12-29T07:07:22;13.93;;;10.45;;
82495;SDS011;72133;42.522;24.800;2023-12-29T07:09:47;16.48;;;10.80;;
82495;SDS011;72133;42.522;24.800;2023-12-29T07:12:13;13.07;;;10.18;;
82495;SDS011;72133;42.522;24.800;2023-12-29T07:14:40;16.17;;;11.73;;
82495;SDS011;72133;42.522;24.800;2023-12-29T07:17:06;15.02;;;12.00;;
82495;SDS011;72133;42.522;24.800;2023-12-29T07:19:32;13.60;;;11.68;;
82495;SDS011;72133;42.522;24.800;2023-12-29T07:22:02;13.20;;;9.77;;
82495;SDS011;72133;42.522;24.800;2023-12-29T07:24:32;15.18;;;10.88;;
82495;SDS011;72133;42.522;24.800;2023-12-29T07:26:58;15.40;;;13.05;;
82495;SDS011;72133;42.522;24.800;2023-12-29T07:29:23;16.65;;;14.00;;
82495;SDS011;72133;42.522;24.800;2023-12-29T07:31:49;14.23;;;10.57;;
82495;SDS011;72133;42.522;24.800;2023-12-29T07:34:15;11.20;;;8.15;;
82495;SDS011;72133;42.522;24.800;2023-12-29T07:36:40;11.88;;;7.70;;
82495;SDS011;72133;42.522;24.800;2023-12-29T07:39:06;10.15;;;7.97;;
82495;SDS011;72133;42.522;24.800;2023-12-29T07:41:32;14.00;;;9.20;;
82495;SDS011;72133;42.522;24.800;2023-12-29T07:43:58;12.05;;;9.40;;
82495;SDS011;72133;42.522;24.800;2023-12-29T07:46:26;9.98;;;7.22;;
82495;SDS011;72133;42.522;24.800;2023-12-29T07:48:52;9.75;;;7.50;;
82495;SDS011;72133;42.522;24.800;2023-12-29T07:51:18;10.82;;;9.57;;
82495;SDS011;72133;42.522;24.800;2023-12-29T07:53:43;11.50;;;9.93;;
82495;SDS011;72133;42.522;24.800;2023-12-29T07:56:12;11.07;;;9.75;;
82495;SDS011;72133;42.522;24.800;2023-12-29T07:58:38;12.52;;;10.02;;
82495;SDS011;72133;42.522;24.800;2023-12-29T08:01:03;13.77;;;11.25;;
82495;SDS011;72133;42.522;24.800;2023-12-29T08:03:29;12.85;;;10.98;;
82495;SDS011;72133;42.522;24.800;2023-12-29T08:05:54;16.55;;;10.38;;
82495;SDS011;72133;42.522;24.800;2023-12-29T08:08:20;19.42;;;10.73;;
82495;SDS011;72133;42.522;24.800;2023-12-29T08:10:46;20.02;;;11.88;;
82495;SDS011;72133;42.522;24.800;2023-12-29T08:13:11;21.80;;;14.38;;
82495;SDS011;72133;42.522;24.800;2023-12-29T08:15:37;35.75;;;21.02;;
82495;SDS011;72133;42.522;24.800;2023-12-29T08:18:03;42.95;;;24.25;;
82495;SDS011;72133;42.522;24.800;2023-12-29T08:20:29;57.20;;;32.05;;
82495;SDS011;72133;42.522;24.800;2023-12-29T08:22:55;57.88;;;34.58;;
82495;SDS011;72133;42.522;24.800;2023-12-29T08:25:22;50.97;;;31.75;;
82495;SDS011;72133;42.522;24.800;2023-12-29T08:27:48;17.95;;;10.27;;
82495;SDS011;72133;42.522;24.800;2023-12-29T08:30:13;16.58;;;11.52;;
82495;SDS011;72133;42.522;24.800;2023-12-29T08:32:39;9.38;;;7.22;;
82495;SDS011;72133;42.522;24.800;2023-12-29T08:35:05;11.98;;;8.40;;
82495;SDS011;72133;42.522;24.800;2023-12-29T08:37:31;10.80;;;7.57;;
82495;SDS011;72133;42.522;24.800;2023-12-29T08:39:58;18.63;;;15.85;;
82495;SDS011;72133;42.522;24.800;2023-12-29T08:42:24;13.98;;;10.43;;
82495;SDS011;72133;42.522;24.800;2023-12-29T08:44:51;16.00;;;10.77;;
82495;SDS011;72133;42.522;24.800;2023-12-29T08:47:17;9.57;;;7.63;;
82495;SDS011;72133;42.522;24.800;2023-12-29T08:49:43;13.30;;;8.68;;
82495;SDS011;72133;42.522;24.800;2023-12-29T08:52:08;17.45;;;13.55;;
82495;SDS011;72133;42.522;24.800;2023-12-29T08:54:34;8.38;;;6.20;;
82495;SDS011;72133;42.522;24.800;2023-12-29T08:57:02;8.88;;;7.35;;
82495;SDS011;72133;42.522;24.800;2023-12-29T08:59:28;16.75;;;14.10;;
82495;SDS011;72133;42.522;24.800;2023-12-29T09:01:54;13.32;;;10.98;;
82495;SDS011;72133;42.522;24.800;2023-12-29T09:04:21;23.85;;;15.75;;
82495;SDS011;72133;42.522;24.800;2023-12-29T09:06:46;18.45;;;13.30;;
82495;SDS011;72133;42.522;24.800;2023-12-29T09:09:12;35.25;;;31.40;;
82495;SDS011;72133;42.522;24.800;2023-12-29T09:11:44;13.95;;;10.35;;
82495;SDS011;72133;42.522;24.800;2023-12-29T09:14:10;12.05;;;9.32;;
82495;SDS011;72133;42.522;24.800;2023-12-29T09:16:36;14.93;;;12.82;;
82495;SDS011;72133;42.522;24.800;2023-12-29T09:19:01;19.77;;;16.77;;
82495;SDS011;72133;42.522;24.800;2023-12-29T09:21:27;47.97;;;42.92;;
82495;SDS011;72133;42.522;24.800;2023-12-29T09:23:53;15.15;;;11.55;;
82495;SDS011;72133;42.522;24.800;2023-12-29T09:26:18;13.02;;;9.15;;
82495;SDS011;72133;42.522;24.800;2023-12-29T09:28:44;14.00;;;10.23;;
82495;SDS011;72133;42.522;24.800;2023-12-29T09:31:10;12.52;;;8.55;;
82495;SDS011;72133;42.522;24.800;2023-12-29T09:33:36;10.95;;;8.60;;
82495;SDS011;72133;42.522;24.800;2023-12-29T09:36:02;13.95;;;11.57;;
82495;SDS011;72133;42.522;24.800;2023-12-29T09:38:28;13.93;;;9.38;;
82495;SDS011;72133;42.522;24.800;2023-12-29T09:40:54;12.63;;;9.25;;
82495;SDS011;72133;42.522;24.800;2023-12-29T09:43:21;10.95;;;9.18;;
82495;SDS011;72133;42.522;24.800;2023-12-29T09:45:46;13.82;;;9.80;;
82495;SDS011;72133;42.522;24.800;2023-12-29T09:48:13;12.07;;;9.27;;
82495;SDS011;72133;42.522;24.800;2023-12-29T09:50:42;16.98;;;15.10;;
82495;SDS011;72133;42.522;24.800;2023-12-29T09:53:08;17.60;;;12.88;;
82495;SDS011;72133;42.522;24.800;2023-12-29T09:55:35;17.05;;;12.65;;
82495;SDS011;72133;42.522;24.800;2023-12-29T09:58:02;14.68;;;9.70;;
82495;SDS011;72133;42.522;24.800;2023-12-29T10:00:28;11.18;;;8.55;;
82495;SDS011;72133;42.522;24.800;2023-12-29T10:02:54;12.20;;;9.40;;
82495;SDS011;72133;42.522;24.800;2023-12-29T10:05:20;13.98;;;9.90;;
82495;SDS011;72133;42.522;24.800;2023-12-29T10:07:46;11.57;;;8.13;;
82495;SDS011;72133;42.522;24.800;2023-12-29T10:10:14;11.50;;;8.70;;
82495;SDS011;72133;42.522;24.800;2023-12-29T10:12:41;17.58;;;9.45;;
82495;SDS011;72133;42.522;24.800;2023-12-29T10:23:17;10.98;;;8.15;;
82495;SDS011;72133;42.522;24.800;2023-12-29T10:25:45;10.38;;;7.97;;
82495;SDS011;72133;42.522;24.800;2023-12-29T10:28:12;12.20;;;7.75;;
82495;SDS011;72133;42.522;24.800;2023-12-29T10:30:38;9.45;;;6.50;;
82495;SDS011;72133;42.522;24.800;2023-12-29T10:33:05;9.18;;;5.47;;
82495;SDS011;72133;42.522;24.800;2023-12-29T10:35:30;10.77;;;6.32;;
82495;SDS011;72133;42.522;24.800;2023-12-29T10:38:11;8.20;;;6.32;;
82495;SDS011;72133;42.522;24.800;2023-12-29T10:40:38;11.00;;;6.35;;
82495;SDS011;72133;42.522;24.800;2023-12-29T10:43:03;8.25;;;5.53;;
82495;SDS011;72133;42.522;24.800;2023-12-29T10:45:32;9.85;;;5.80;;
82495;SDS011;72133;42.522;24.800;2023-12-29T10:47:59;8.98;;;6.22;;
82495;SDS011;72133;42.522;24.800;2023-12-29T10:50:25;7.75;;;5.85;;
82495;SDS011;72133;42.522;24.800;2023-12-29T10:52:57;11.40;;;6.13;;
82495;SDS011;72133;42.522;24.800;2023-12-29T10:55:35;10.40;;;6.35;;
82495;SDS011;72133;42.522;24.800;2023-12-29T10:58:01;8.40;;;6.35;;
82495;SDS011;72133;42.522;24.800;2023-12-29T11:00:30;10.30;;;6.10;;
82495;SDS011;72133;42.522;24.800;2023-12-29T11:02:56;9.88;;;6.72;;
82495;SDS011;72133;42.522;24.800;2023-12-29T11:05:24;8.45;;;6.10;;
82495;SDS011;72133;42.522;24.800;2023-12-29T11:07:50;11.23;;;7.30;;
82495;SDS011;72133;42.522;24.800;2023-12-29T11:10:19;8.63;;;7.07;;
82495;SDS011;72133;42.522;24.800;2023-12-29T11:12:45;11.55;;;8.40;;
82495;SDS011;72133;42.522;24.800;2023-12-29T11:15:13;9.25;;;8.15;;
82495;SDS011;72133;42.522;24.800;2023-12-29T11:17:39;9.13;;;7.25;;
82495;SDS011;72133;42.522;24.800;2023-12-29T11:20:16;8.70;;;7.50;;
82495;SDS011;72133;42.522;24.800;2023-12-29T11:25:17;9.27;;;6.55;;
82495;SDS011;72133;42.522;24.800;2023-12-29T11:27:43;9.57;;;6.90;;
82495;SDS011;72133;42.522;24.800;2023-12-29T11:30:09;9.60;;;7.40;;
82495;SDS011;72133;42.522;24.800;2023-12-29T11:35:21;11.10;;;8.02;;
82495;SDS011;72133;42.522;24.800;2023-12-29T11:40:50;12.93;;;8.98;;
82495;SDS011;72133;42.522;24.800;2023-12-29T11:43:22;10.02;;;8.02;;
82495;SDS011;72133;42.522;24.800;2023-12-29T11:45:49;9.23;;;7.43;;
82495;SDS011;72133;42.522;24.800;2023-12-29T11:48:52;9.30;;;7.40;;
82495;SDS011;72133;42.522;24.800;2023-12-29T11:51:41;10.90;;;8.10;;
82495;SDS011;72133;42.522;24.800;2023-12-29T11:54:10;11.98;;;8.40;;
82495;SDS011;72133;42.522;24.800;2023-12-29T11:56:50;11.23;;;7.88;;
82495;SDS011;72133;42.522;24.800;2023-12-29T12:01:42;9.15;;;7.47;;
82495;SDS011;72133;42.522;24.800;2023-12-29T12:06:58;12.77;;;8.48;;
82495;SDS011;72133;42.522;24.800;2023-12-29T12:09:24;12.77;;;9.57;;
82495;SDS011;72133;42.522;24.800;2023-12-29T12:11:52;11.40;;;8.52;;
82495;SDS011;72133;42.522;24.800;2023-12-29T12:17:25;15.10;;;8.98;;
82495;SDS011;72133;42.522;24.800;2023-12-29T12:19:55;14.52;;;9.60;;
82495;SDS011;72133;42.522;24.800;2023-12-29T12:22:23;11.05;;;9.15;;
82495;SDS011;72133;42.522;24.800;2023-12-29T12:24:50;12.07;;;9.20;;
82495;SDS011;72133;42.522;24.800;2023-12-29T12:27:21;14.68;;;8.70;;
82495;SDS011;72133;42.522;24.800;2023-12-29T12:29:51;12.98;;;8.75;;
82495;SDS011;72133;42.522;24.800;2023-12-29T12:32:22;12.70;;;8.98;;
82495;SDS011;72133;42.522;24.800;2023-12-29T12:34:48;12.07;;;8.98;;
82495;SDS011;72133;42.522;24.800;2023-12-29T12:37:18;11.38;;;8.93;;
82495;SDS011;72133;42.522;24.800;2023-12-29T12:39:47;11.80;;;8.05;;
82495;SDS011;72133;42.522;24.800;2023-12-29T12:42:14;10.10;;;8.13;;
82495;SDS011;72133;42.522;24.800;2023-12-29T12:44:41;10.10;;;8.23;;
82495;SDS011;72133;42.522;24.800;2023-12-29T12:47:09;13.05;;;8.88;;
82495;SDS011;72133;42.522;24.800;2023-12-29T12:49:41;12.63;;;8.80;;
82495;SDS011;72133;42.522;24.800;2023-12-29T12:52:07;11.85;;;8.73;;
82495;SDS011;72133;42.522;24.800;2023-12-29T12:54:32;12.43;;;8.88;;
82495;SDS011;72133;42.522;24.800;2023-12-29T12:56:58;11.88;;;8.57;;
82495;SDS011;72133;42.522;24.800;2023-12-29T12:59:23;16.95;;;11.73;;
82495;SDS011;72133;42.522;24.800;2023-12-29T13:01:49;12.02;;;9.55;;
82495;SDS011;72133;42.522;24.800;2023-12-29T13:04:15;11.80;;;8.98;;
82495;SDS011;72133;42.522;24.800;2023-12-29T13:06:41;12.45;;;8.98;;
82495;SDS011;72133;42.522;24.800;2023-12-29T13:09:11;14.65;;;9.98;;
82495;SDS011;72133;42.522;24.800;2023-12-29T13:11:37;12.48;;;8.93;;
82495;SDS011;72133;42.522;24.800;2023-12-29T13:14:06;11.50;;;9.18;;
82495;SDS011;72133;42.522;24.800;2023-12-29T13:16:33;12.52;;;9.45;;
82495;SDS011;72133;42.522;24.800;2023-12-29T13:22:00;10.75;;;8.10;;
82495;SDS011;72133;42.522;24.800;2023-12-29T13:24:26;11.00;;;8.32;;
82495;SDS011;72133;42.522;24.800;2023-12-29T13:26:55;13.38;;;8.45;;
82495;SDS011;72133;42.522;24.800;2023-12-29T13:29:23;10.90;;;9.10;;
82495;SDS011;72133;42.522;24.800;2023-12-29T13:31:50;11.63;;;8.50;;
82495;SDS011;72133;42.522;24.800;2023-12-29T13:34:19;12.43;;;7.70;;
82495;SDS011;72133;42.522;24.800;2023-12-29T13:36:54;11.30;;;8.30;;
82495;SDS011;72133;42.522;24.800;2023-12-29T13:41:58;15.30;;;11.13;;
82495;SDS011;72133;42.522;24.800;2023-12-29T13:44:25;22.85;;;14.18;;
82495;SDS011;72133;42.522;24.800;2023-12-29T13:46:52;30.65;;;19.60;;
82495;SDS011;72133;42.522;24.800;2023-12-29T13:49:18;22.52;;;13.77;;
82495;SDS011;72133;42.522;24.800;2023-12-29T13:51:44;37.05;;;21.27;;
82495;SDS011;72133;42.522;24.800;2023-12-29T13:54:10;35.55;;;23.33;;
82495;SDS011;72133;42.522;24.800;2023-12-29T13:56:35;15.23;;;10.00;;
82495;SDS011;72133;42.522;24.800;2023-12-29T13:59:01;11.68;;;8.80;;
82495;SDS011;72133;42.522;24.800;2023-12-29T14:01:36;11.00;;;8.18;;
82495;SDS011;72133;42.522;24.800;2023-12-29T14:04:03;10.25;;;7.30;;
82495;SDS011;72133;42.522;24.800;2023-12-29T14:06:42;12.88;;;8.90;;
82495;SDS011;72133;42.522;24.800;2023-12-29T14:09:15;19.27;;;11.85;;
82495;SDS011;72133;42.522;24.800;2023-12-29T14:11:47;11.20;;;8.00;;
82495;SDS011;72133;42.522;24.800;2023-12-29T14:14:14;10.93;;;6.78;;
82495;SDS011;72133;42.522;24.800;2023-12-29T14:16:40;12.60;;;7.50;;
82495;SDS011;72133;42.522;24.800;2023-12-29T14:19:06;11.90;;;7.60;;
82495;SDS011;72133;42.522;24.800;2023-12-29T14:21:32;11.10;;;6.78;;
82495;SDS011;72133;42.522;24.800;2023-12-29T14:24:04;14.68;;;8.75;;
82495;SDS011;72133;42.522;24.800;2023-12-29T14:29:18;11.93;;;6.80;;
82495;SDS011;72133;42.522;24.800;2023-12-29T14:31:44;8.77;;;6.55;;
82495;SDS011;72133;42.522;24.800;2023-12-29T14:34:10;7.72;;;5.97;;
82495;SDS011;72133;42.522;24.800;2023-12-29T14:36:37;8.57;;;6.80;;
82495;SDS011;72133;42.522;24.800;2023-12-29T14:39:04;10.20;;;6.97;;
82495;SDS011;72133;42.522;24.800;2023-12-29T14:41:31;10.98;;;8.25;;
82495;SDS011;72133;42.522;24.800;2023-12-29T14:43:57;13.52;;;8.30;;
82495;SDS011;72133;42.522;24.800;2023-12-29T14:46:22;10.68;;;7.45;;
82495;SDS011;72133;42.522;24.800;2023-12-29T14:48:48;9.98;;;7.10;;
82495;SDS011;72133;42.522;24.800;2023-12-29T14:51:14;8.88;;;6.80;;